Flight Track Log - Related Links

Times and Time Zones

All times are in EDT time to prevent confusion due to time zone crossing. See the N115YP flight status page for this flight to view local times or setup timezone preferences in your user account.


Time Position Orientation Groundspeed Altitude Reporting Facility
EDT Latitude Longitude Course Direction KTS MPH feet Rate Location/Type
Sun 01:39:38 PM 40.8019 -99.5347 92° East 192 221 7,000  Level Denver Center
Sun 01:40:40 PM 40.8000 -99.4592 92° East 202 232 8,100 1,078 Climbing Denver Center
Sun 01:41:46 PM 40.7975 -99.3828 92° East 204 235 9,300 1,161 Climbing Minneapolis Center
Sun 01:42:44 PM 40.7969 -99.3056 91° East 209 241 10,500 1,100 Climbing Denver Center
Sun 01:43:46 PM 40.7942 -99.2272 93° East 213 245 11,500 1,016 Climbing Denver Center
Sun 01:44:48 PM 40.7869 -99.1286 95° East 223 257 12,600 923 Climbing Denver Center
Sun 01:45:04 PM 40.7858 -99.1122 95° East 219 252 12,700 769 Climbing Minneapolis Center
Sun 01:46:06 PM 40.7792 -99.0272 96° East 227 261 13,600 823 Climbing Minneapolis Center
Sun 01:47:08 PM 40.7736 -98.9389 95° East 235 270 14,400 774 Climbing Minneapolis Center
Sun 01:48:10 PM 40.7656 -98.8303 96° East 246 283 15,200 788 Climbing Minneapolis Center
Sun 01:49:25 PM 40.7611 -98.7183 93° East 254 292 16,200 920 Climbing Minneapolis Center
Sun 01:50:27 PM 40.7558 -98.6292 94° East 250 288 17,300 968 Climbing Minneapolis Center
Sun 01:51:29 PM 40.7497 -98.5422 95° East 242 278 18,200 968 Climbing Minneapolis Center
Sun 01:52:31 PM 40.7417 -98.4556 97° East 240 276 19,300 1,065 Climbing Minneapolis Center
Sun 01:53:33 PM 40.7306 -98.3678 99° East 242 278 20,400 774 Climbing Minneapolis Center
Sun 01:54:35 PM 40.7228 -98.2544 95° East 255 293 20,900 290 Climbing Minneapolis Center
Sun 01:55:37 PM 40.7186 -98.1497 93° East 278 320 21,000 48 Climbing Minneapolis Center
Sun 01:56:39 PM 40.7150 -98.0433 93° East 289 333 21,000  Level Minneapolis Center
Sun 01:57:41 PM 40.7117 -97.9397 92° East 287 330 21,000  Level Minneapolis Center
Sun 01:58:43 PM 40.7075 -97.8358 93° East 286 329 21,000 -48 Level Minneapolis Center
Sun 01:59:45 PM 40.7050 -97.7317 92° East 284 327 20,900  Descending Minneapolis Center
Sun 02:00:47 PM 40.7022 -97.6083 92° East 283 326 21,000 48 Climbing Minneapolis Center
Sun 02:01:49 PM 40.6994 -97.5053 92° East 282 325 21,000  Level Minneapolis Center
Sun 02:02:52 PM 40.6972 -97.4047 92° East 278 320 21,000  Level Minneapolis Center
Sun 02:03:54 PM 40.6944 -97.2986 92° East 280 322 21,000  Level Minneapolis Center
Sun 02:04:56 PM 40.6914 -97.1950 92° East 283 326 21,000  Level Minneapolis Center
Sun 02:05:58 PM 40.6908 -97.0953 90° East 276 318 21,000  Level Minneapolis Center
Sun 02:07:00 PM 40.6883 -96.9956 92° East 273 314 21,000  Level Minneapolis Center
Sun 02:08:02 PM 40.6869 -96.8753 91° East 275 316 21,000  Level Minneapolis Center
Sun 02:09:04 PM 40.6842 -96.7758 92° East 273 314 21,000  Level Minneapolis Center
Sun 02:10:06 PM 40.6817 -96.6736 92° East 278 320 21,000  Level Minneapolis Center
Sun 02:11:08 PM 40.6800 -96.5747 91° East 273 314 21,000  Level Minneapolis Center
Sun 02:12:10 PM 40.6775 -96.4736 92° East 276 318 21,000  Level Minneapolis Center
Sun 02:13:12 PM 40.6747 -96.3528 92° East 277 319 21,000  Level Minneapolis Center
Sun 02:14:15 PM 40.6711 -96.2511 93° East 278 320 21,000  Level Minneapolis Center
Sun 02:15:17 PM 40.6675 -96.1497 93° East 279 321 21,000  Level Minneapolis Center
Sun 02:16:19 PM 40.6639 -96.0497 93° East 277 319 21,000  Level Minneapolis Center
Sun 02:17:21 PM 40.6619 -95.9483 91° East 277 319 21,000  Level Minneapolis Center
Sun 02:18:24 PM 40.6606 -95.8272 91° East 277 319 21,000  Level Minneapolis Center
Sun 02:19:26 PM 40.6600 -95.7264 90° East 277 319 21,000  Level Minneapolis Center
Sun 02:20:28 PM 40.6586 -95.6250 91° East 278 320 21,000  Level Minneapolis Center
Sun 02:21:30 PM 40.6544 -95.5222 93° East 280 322 21,000  Level Minneapolis Center
Sun 02:22:32 PM 40.6497 -95.4222 94° East 277 319 21,000  Level Minneapolis Center
Sun 02:23:34 PM 40.6444 -95.3208 94° East 278 320 21,000  Level Minneapolis Center
Sun 02:24:37 PM 40.6353 -95.2000 96° East 277 319 21,000  Level Minneapolis Center
Sun 02:25:39 PM 40.6236 -95.1000 99° East 278 320 21,000  Level Minneapolis Center
Sun 02:26:41 PM 40.6089 -95.0006 101° East 278 320 21,000  Level Minneapolis Center
Sun 02:27:43 PM 40.6014 -94.8994 96° East 278 320 21,000  Level Minneapolis Center
Sun 02:28:45 PM 40.6050 -94.7969 87° East 279 321 21,000  Level Minneapolis Center
Sun 02:29:47 PM 40.5942 -94.6953 98° East 280 322 21,000  Level Minneapolis Center
Sun 02:30:49 PM 40.5925 -94.5742 91° East 277 319 21,000  Level Minneapolis Center
Sun 02:31:51 PM 40.5883 -94.4861 94° East 281 323 21,000  Level Minneapolis Center
Sun 02:32:53 PM 40.5750 -94.3664 98° East 279 321 21,000  Level Minneapolis Center
Sun 02:33:55 PM 40.5678 -94.2647 95° East 280 322 21,000  Level Minneapolis Center
Sun 02:34:57 PM 40.5656 -94.1631 92° East 279 321 21,000  Level Minneapolis Center
Sun 02:35:59 PM 40.5592 -94.0614 95° East 280 322 21,000  Level Minneapolis Center
Sun 02:37:01 PM 40.5500 -93.9600 97° East 282 325 21,000  Level Minneapolis Center
Sun 02:38:04 PM 40.5414 -93.8389 95° East 279 321 21,000  Level Minneapolis Center
Sun 02:39:06 PM 40.5367 -93.7364 93° East 281 323 21,000  Level Minneapolis Center
Sun 02:40:08 PM 40.5300 -93.6344 95° East 282 325 21,000  Level Minneapolis Center
Sun 02:40:47 PM 40.5233 -93.5731 98° East 282 325 21,000  Level Kansas City Center
Sun 02:41:47 PM 40.5142 -93.4708 97° East 284 327 21,000  Level Kansas City Center
Sun 02:42:49 PM 40.5083 -93.3669 94° East 286 329 21,000  Level Kansas City Center
Sun 02:43:51 PM 40.5025 -93.2417 93° East 288 331 21,000  Level Kansas City Center
Sun 02:44:54 PM 40.4944 -93.1381 96° East 287 330 21,000  Level Kansas City Center
Sun 02:45:54 PM 40.4781 -93.0278 101° East 292 336 21,000  Level Kansas City Center
Sun 02:46:58 PM 40.4817 -92.9267 87° East 290 334 21,000  Level Kansas City Center
Sun 02:47:59 PM 40.4703 -92.8086 97° East 290 334 21,000  Level Kansas City Center
Sun 02:49:00 PM 40.4564 -92.7086 100° East 291 335 21,000  Level Kansas City Center
Sun 02:50:04 PM 40.4519 -92.5908 93° East 297 342 21,000  Level Kansas City Center
Sun 02:51:04 PM 40.4478 -92.4853 93° East 294 338 21,000  Level Kansas City Center
Sun 02:52:06 PM 40.4325 -92.3808 101° East 292 336 21,000  Level Kansas City Center
Sun 02:52:45 PM 40.4294 -92.3147 93° East 293 337 21,000  Level Chicago Center
Sun 02:53:09 PM 40.4292 -92.2711 90° East 293 337 21,000  Level Kansas City Center
Sun 02:54:10 PM 40.4194 -92.1661 97° East 293 337 21,000  Level Kansas City Center
Sun 02:54:49 PM 40.4089 -92.0822 99° East 294 338 21,000  Level Chicago Center
Sun 02:55:51 PM 40.4050 -91.9764 93° East 293 337 21,000  Level Chicago Center
Sun 02:56:53 PM 40.3947 -91.8719 97° East 292 336 21,000  Level Chicago Center
Sun 02:57:17 PM 40.3894 -91.8294 99° East 292 336 21,000  Level Kansas City Center
Sun 02:58:18 PM 40.3808 -91.7239 96° East 293 337 21,000  Level Kansas City Center
Sun 02:59:21 PM 40.3747 -91.6183 94° East 293 337 21,000  Level Kansas City Center
Sun 03:00:23 PM 40.3622 -91.5125 99° East 294 338 21,000  Level Kansas City Center
Sun 03:01:24 PM 40.3569 -91.4058 94° East 296 341 21,000  Level Kansas City Center
Sun 03:02:28 PM 40.3444 -91.2767 97° East 293 337 21,000  Level Kansas City Center
Sun 03:03:29 PM 40.3339 -91.1706 97° East 294 338 21,000  Level Kansas City Center
Sun 03:04:29 PM 40.3281 -91.0636 94° East 294 338 21,000  Level Kansas City Center
Sun 03:05:33 PM 40.3153 -90.9594 99° East 292 336 21,000  Level Kansas City Center
Sun 03:06:12 PM 40.3100 -90.8739 95° East 295 339 21,000  Level Chicago Center
Sun 03:07:14 PM 40.2981 -90.7667 98° East 298 343 21,000  Level Chicago Center
Sun 03:08:16 PM 40.2856 -90.6603 99° East 296 341 21,000  Level Chicago Center
Sun 03:08:37 PM 40.2853 -90.6167 90° East 296 341 21,000  Level Kansas City Center
Sun 03:09:41 PM 40.2744 -90.5086 97° East 300 345 21,000  Level Kansas City Center
Sun 03:10:42 PM 40.2608 -90.4025 100° East 298 343 21,000  Level Kansas City Center
Sun 03:11:44 PM 40.2564 -90.2950 93° East 298 343 21,000  Level Kansas City Center
Sun 03:12:47 PM 40.2419 -90.1889 100° East 297 342 21,000  Level Kansas City Center
Sun 03:13:48 PM 40.2333 -90.0811 96° East 298 343 21,000  Level Kansas City Center
Sun 03:14:49 PM 40.2206 -89.9544 97° East 296 341 21,000  Level Kansas City Center
Sun 03:15:53 PM 40.2061 -89.8483 100° East 297 342 21,000  Level Kansas City Center
Sun 03:16:33 PM 40.2025 -89.7842 94° East 298 343 21,000  Level Chicago Center
Sun 03:17:35 PM 40.1900 -89.6558 97° East 299 344 21,000  Level Chicago Center
Sun 03:18:58 PM 40.1714 -89.5308 101° East 297 342 21,000  Level Kansas City Center
Sun 03:20:00 PM 40.1639 -89.4228 95° East 297 342 21,000  Level Kansas City Center
Sun 03:20:41 PM 40.1581 -89.3364 95° East 298 343 21,000  Level Chicago Center
Sun 03:21:43 PM 40.1536 -89.2283 93° East 299 344 21,000  Level Chicago Center
Sun 03:22:45 PM 40.1419 -89.1208 98° East 300 345 21,000  Level Chicago Center
Sun 03:23:48 PM 40.1125 -88.9983 107° East 298 343 21,000  Level Chicago Center
Sun 03:24:50 PM 40.1072 -88.8894 94° East 304 350 21,000  Level Chicago Center
Sun 03:25:52 PM 40.0858 -88.7883 105° East 294 338 21,000  Level Chicago Center
Sun 03:26:54 PM 40.0775 -88.6803 96° East 297 342 21,000  Level Chicago Center
Sun 03:27:56 PM 40.0744 -88.5725 92° East 299 344 21,000  Level Chicago Center
Sun 03:28:58 PM 40.0611 -88.4661 99° East 300 345 21,000  Level Chicago Center
Sun 03:30:00 PM 40.0419 -88.3400 101° East 297 342 21,000  Level Chicago Center
Sun 03:31:02 PM 40.0333 -88.2325 96° East 300 345 21,000  Level Chicago Center
Sun 03:32:04 PM 40.0256 -88.1222 95° East 297 342 21,000  Level Chicago Center
Sun 03:33:06 PM 40.0169 -88.0150 96° East 298 343 21,000  Level Chicago Center
Sun 03:34:08 PM 40.0083 -87.9078 96° East 299 344 21,000  Level Chicago Center
Sun 03:35:10 PM 39.9972 -87.8008 98° East 299 344 21,000 -46 Level Chicago Center
Sun 03:36:18 PM 39.9772 -87.6750 102° East 295 339 20,900  Descending Indianapolis Center
Sun 03:37:19 PM 39.9594 -87.5711 103° East 295 339 21,000 49 Climbing Indianapolis Center
Sun 03:38:21 PM 39.9372 -87.4692 106° East 294 338 21,000  Level Indianapolis Center
Sun 03:39:23 PM 39.9125 -87.3683 108° East 293 337 21,000  Level Indianapolis Center
Sun 03:40:25 PM 39.8789 -87.2511 110° East 291 335 21,000  Level Indianapolis Center
Sun 03:41:27 PM 39.8489 -87.1531 112° Southeast 292 336 21,000 -48 Level Indianapolis Center
Sun 03:42:29 PM 39.8286 -87.0514 105° East 292 336 20,900  Descending Indianapolis Center
Sun 03:43:31 PM 39.8117 -86.9472 102° East 293 337 21,000  Climbing Indianapolis Center
Sun 03:44:32 PM 39.7944 -86.8447 102° East 292 336 20,900 -49 Descending Indianapolis Center
Sun 03:45:34 PM 39.7778 -86.7403 102° East 294 338 20,900 48 Level Indianapolis Center
Sun 03:46:36 PM 39.7611 -86.6381 102° East 292 336 21,000 48 Climbing Indianapolis Center
Sun 03:47:38 PM 39.7442 -86.5150 100° East 290 334 21,000 -48 Level Indianapolis Center
Sun 03:48:40 PM 39.7306 -86.4114 100° East 292 336 20,900 -49 Descending Indianapolis Center
Sun 03:49:41 PM 39.6911 -86.3267 121° Southeast 289 333 20,900 49 Level Indianapolis Center
Sun 03:50:43 PM 39.6531 -86.2386 119° Southeast 289 333 21,000  Climbing Indianapolis Center
Sun 03:51:45 PM 39.6075 -86.1317 119° Southeast 286 329 20,900 -48 Descending Indianapolis Center
Sun 03:52:47 PM 39.5683 -86.0431 120° Southeast 284 327 20,900 48 Level Indianapolis Center
Sun 03:53:49 PM 39.5275 -85.9550 121° Southeast 287 330 21,000  Climbing Indianapolis Center
Sun 03:54:50 PM 39.4867 -85.8661 121° Southeast 288 331 20,900  Descending Indianapolis Center
Sun 03:55:52 PM 39.4469 -85.7756 120° Southeast 289 333 21,000 48 Climbing Indianapolis Center
Sun 03:56:54 PM 39.4089 -85.6839 118° Southeast 290 334 21,000  Level Indianapolis Center
Sun 03:57:56 PM 39.3575 -85.5797 123° Southeast 287 330 21,000  Level Indianapolis Center
Sun 03:58:57 PM 39.3183 -85.4925 120° Southeast 284 327 21,000  Level Indianapolis Center
Sun 03:59:59 PM 39.2794 -85.4061 120° Southeast 280 322 21,000  Level Indianapolis Center
Sun 04:01:01 PM 39.2536 -85.3119 109° East 281 323 21,000  Level Indianapolis Center
Sun 04:02:03 PM 39.2108 -85.2328 125° Southeast 275 316 21,000  Level Indianapolis Center
Sun 04:03:05 PM 39.1656 -85.1553 127° Southeast 272 313 21,000  Level Indianapolis Center
Sun 04:04:06 PM 39.1242 -85.0747 123° Southeast 274 315 21,000  Level Indianapolis Center
Sun 04:05:08 PM 39.0842 -84.9708 116° Southeast 269 310 21,000  Level Indianapolis Center
Sun 04:06:10 PM 39.0517 -84.8831 115° Southeast 271 312 21,000 -48 Level Indianapolis Center
Sun 04:07:12 PM 39.0072 -84.8139 130° Southeast 265 305 20,900  Descending Indianapolis Center
Sun 04:08:13 PM 38.9517 -84.7508 139° Southeast 264 304 21,000 49 Climbing Indianapolis Center
Sun 04:09:15 PM 38.9008 -84.6847 135° Southeast 259 298 21,000  Level Indianapolis Center
Sun 04:10:17 PM 38.8664 -84.6003 118° Southeast 267 307 21,000 -48 Level Indianapolis Center
Sun 04:11:19 PM 38.8306 -84.4997 115° Southeast 266 306 20,900  Descending Indianapolis Center
Sun 04:12:21 PM 38.8064 -84.4072 109° East 270 311 21,000 48 Climbing Indianapolis Center
Sun 04:13:23 PM 38.7717 -84.3217 117° Southeast 269 310 21,000  Level Indianapolis Center
Sun 04:14:24 PM 38.7317 -84.2383 122° Southeast 272 313 21,000  Level Indianapolis Center
Sun 04:15:26 PM 38.6994 -84.1447 114° Southeast 283 326 21,000 -48 Level Indianapolis Center
Sun 04:16:28 PM 38.6667 -84.0519 114° Southeast 284 327 20,900 -48 Descending Indianapolis Center
Sun 04:17:30 PM 38.6333 -83.9503 113° Southeast 286 329 20,900  Level Indianapolis Center
Sun 04:18:32 PM 38.6172 -83.8467 101° East 294 338 20,900  Level Indianapolis Center
Sun 04:19:34 PM 38.5856 -83.7539 114° Southeast 286 329 20,900  Level Indianapolis Center
Sun 04:20:36 PM 38.5400 -83.6514 120° Southeast 283 326 20,900  Level Indianapolis Center
Sun 04:21:37 PM 38.5000 -83.5667 121° Southeast 280 322 20,900 49 Level Indianapolis Center
Sun 04:22:39 PM 38.4667 -83.4744 115° Southeast 284 327 21,000  Climbing Indianapolis Center
Sun 04:23:41 PM 38.4261 -83.3906 122° Southeast 280 322 20,900  Descending Indianapolis Center
Sun 04:24:43 PM 38.3925 -83.2989 115° Southeast 284 327 21,000 48 Climbing Indianapolis Center
Sun 04:25:45 PM 38.3514 -83.2183 123° Southeast 274 315 21,000  Level Indianapolis Center
Sun 04:26:46 PM 38.3153 -83.1156 114° Southeast 271 312 21,000  Level Indianapolis Center
Sun 04:27:48 PM 38.2764 -83.0375 122° Southeast 262 302 21,000  Level Indianapolis Center
Sun 04:28:50 PM 38.2411 -82.9539 118° Southeast 267 307 21,000  Level Indianapolis Center
Sun 04:29:52 PM 38.2153 -82.8644 110° East 268 308 21,000  Level Indianapolis Center
Sun 04:30:54 PM 38.1858 -82.7786 114° Southeast 266 306 21,000  Level Indianapolis Center
Sun 04:31:56 PM 38.1525 -82.6922 116° Southeast 271 312 21,000  Level Indianapolis Center
Sun 04:32:57 PM 38.1203 -82.6058 115° Southeast 271 312 21,000  Level Indianapolis Center
Sun 04:33:59 PM 38.0764 -82.5086 120° Southeast 271 312 21,000  Level Indianapolis Center
Sun 04:35:01 PM 38.0372 -82.4283 122° Southeast 268 308 21,000  Level Indianapolis Center
Sun 04:36:03 PM 38.0094 -82.3378 111° Southeast 272 313 21,000 -49 Level Indianapolis Center
Sun 04:37:04 PM 37.9761 -82.2481 115° Southeast 277 319 20,900 -49 Descending Indianapolis Center
Sun 04:38:06 PM 37.9364 -82.1525 118° Southeast 278 320 20,900 48 Level Indianapolis Center
Sun 04:39:08 PM 37.9056 -82.0617 113° Southeast 281 323 21,000 48 Climbing Indianapolis Center
Sun 04:40:10 PM 37.8706 -81.9747 117° Southeast 280 322 21,000 -49 Level Indianapolis Center
Sun 04:41:11 PM 37.8325 -81.8792 117° Southeast 280 322 20,900 -49 Descending Indianapolis Center
Sun 04:42:13 PM 37.7911 -81.7922 121° Southeast 284 327 20,900  Level Indianapolis Center
Sun 04:43:15 PM 37.7567 -81.7039 116° Southeast 280 322 20,900  Level Indianapolis Center
Sun 04:44:17 PM 37.7281 -81.6117 111° Southeast 282 325 20,900  Level Indianapolis Center
Sun 04:45:19 PM 37.6922 -81.5244 117° Southeast 277 319 20,900  Level Indianapolis Center
Sun 04:46:21 PM 37.6617 -81.4233 111° Southeast 281 323 20,900  Level Indianapolis Center
Sun 04:47:22 PM 37.6275 -81.3328 115° Southeast 286 329 20,900  Level Indianapolis Center
Sun 04:48:24 PM 37.5956 -81.2439 114° Southeast 280 322 20,900  Level Indianapolis Center
Sun 04:49:26 PM 37.5528 -81.1500 120° Southeast 283 326 20,900 49 Level Indianapolis Center
Sun 04:50:27 PM 37.5211 -81.0611 114° Southeast 277 319 21,000 49 Climbing Indianapolis Center
Sun 04:51:29 PM 37.4853 -80.9739 117° Southeast 279 321 21,000 -98 Level Indianapolis Center
Sun 04:52:30 PM 37.4461 -80.8892 120° Southeast 279 321 20,800 -49 Descending Indianapolis Center
Sun 04:53:32 PM 37.4136 -80.8003 115° Southeast 280 322 20,900 97 Climbing Indianapolis Center
Sun 04:54:34 PM 37.3822 -80.7106 114° Southeast 280 322 21,000 48 Climbing Indianapolis Center
Sun 04:55:36 PM 37.3386 -80.6086 118° Southeast 282 325 21,000 -51 Level Indianapolis Center
Sun 04:56:31 PM 37.3061 -80.5294 117° Southeast 278 320 20,900  Descending Washington Center
Sun 04:57:32 PM 37.2761 -80.4467 114° Southeast 278 320 21,000 49 Climbing Washington Center
Sun 04:58:33 PM 37.2444 -80.3508 113° Southeast 278 320 21,000  Level Washington Center
Sun 04:59:31 PM 37.2061 -80.2622 118° Southeast 278 320 21,000 -50 Level Washington Center
Sun 05:00:32 PM 37.1736 -80.1847 118° Southeast 283 326 20,900 -295 Descending Washington Center
Sun 05:01:33 PM 37.1339 -80.0808 116° Southeast 288 331 20,400 -992 Descending Washington Center
Sun 05:02:33 PM 37.0997 -79.9928 116° Southeast 301 346 18,900 -1,525 Descending Washington Center
Sun 05:03:31 PM 37.0619 -79.8786 112° Southeast 314 361 17,400 -1,462 Descending Washington Center
Sun 05:04:32 PM 37.0261 -79.7753 113° Southeast 319 367 16,000 -1,377 Descending Washington Center
Sun 05:05:33 PM 36.9917 -79.6850 116° Southeast 319 367 14,600 -1,462 Descending Washington Center
Sun 05:06:31 PM 36.9578 -79.5739 111° Southeast 319 367 13,100 -1,424 Descending Washington Center
Sun 05:07:31 PM 36.9233 -79.4786 114° Southeast 302 348 11,800 -992 Descending Washington Center
Sun 05:08:32 PM 36.8886 -79.3911 116° Southeast 290 334 11,100 -645 Descending Washington Center
Sun 05:09:32 PM 36.8600 -79.3042 112° Southeast 274 315 10,500 -942 Descending Washington Center
Sun 05:10:33 PM 36.8272 -79.2142 114° Southeast 274 315 9,200 -1,339 Descending Washington Center
Sun 05:11:33 PM 36.7944 -79.1244 115° Southeast 281 323 7,800 -1,400 Descending Washington Center

Login

Don't have an account? Register now (free) for customized features, flight alerts, and more!